Time;durP1;ratioP1;P1;durP2;ratioP2;P2;SDS_P1;SDS_P2;PMS_P1;PMS_P2;Temp;Humidity;BMP_temperature;BMP_pressure;BME280_temperature;BME280_humidity;BME280_pressure;Samples;Min_cycle;Max_cycle;Signal;HPM_P1;HPM_P2
2023/12/17 00:01:19;;;;;;;;;;;;;;;12.26;50.98;102644.00;4950421;27;117347;-65
2023/12/17 00:03:45;;;;;;;;;;;;;;;12.25;50.91;102645.06;4964981;28;99741;-70
2023/12/17 00:06:11;;;;;;;;;;;;;;;12.26;50.69;102650.28;4946219;27;97982;-69
2023/12/17 00:08:37;;;;;;;;;;;;;;;12.25;51.01;102662.13;4947309;27;98361;-70
2023/12/17 00:11:04;;;;;;;;;;;;;;;12.25;50.70;102648.59;4962688;27;98059;-66
2023/12/17 00:13:29;;;;;;;;;;;;;;;12.26;50.86;102644.00;4949133;27;101546;-65
2023/12/17 00:15:56;;;;;;;;;;;;;;;12.26;50.83;102644.00;4947296;28;98229;-65
2023/12/17 00:18:22;;;;;;;;;;;;;;;12.25;50.79;102640.50;4928919;28;98016;-69
2023/12/17 00:20:48;;;;;;;;;;;;;;;12.26;50.69;102642.16;4922756;28;100364;-69
2023/12/17 00:23:14;;;;;;;;;;;;;;;12.25;50.87;102637.78;4940723;28;121152;-70
2023/12/17 00:25:40;;;;;;;;;;;;;;;12.25;50.76;102631.56;4946071;28;98149;-66
2023/12/17 00:28:06;;;;;;;;;;;;;;;12.25;50.75;102620.75;4946405;28;98244;-66
2023/12/17 00:30:32;;;;;;;;;;;;;;;12.25;50.58;102629.66;4949882;28;111220;-69
2023/12/17 00:32:58;;;;;;;;;;;;;;;12.25;50.99;102632.38;4927297;28;99608;-66
2023/12/17 00:35:24;;;;;;;;;;;;;;;12.26;50.80;102625.09;4954293;28;98261;-70
2023/12/17 00:37:50;;;;;;;;;;;;;;;12.25;50.67;102618.84;4942520;28;97964;-69
2023/12/17 00:40:16;;;;;;;;;;;;;;;12.25;50.71;102621.56;4947239;28;119959;-66
2023/12/17 00:42:42;;;;;;;;;;;;;;;12.25;50.65;102628.84;4925131;28;98683;-66
2023/12/17 00:45:08;;;;;;;;;;;;;;;12.25;50.63;102640.50;4943581;28;100099;-66
2023/12/17 00:47:34;;;;;;;;;;;;;;;12.25;50.90;102629.66;4906511;28;98514;-70
2023/12/17 00:50:00;;;;;;;;;;;;;;;12.25;50.69;102620.75;4934439;28;119286;-70
2023/12/17 00:52:26;;;;;;;;;;;;;;;12.24;50.74;102601.00;4945961;28;98177;-66
2023/12/17 00:54:52;;;;;;;;;;;;;;;12.25;50.56;102599.09;4944847;28;100052;-66
2023/12/17 00:57:19;;;;;;;;;;;;;;;12.25;50.59;102607.22;4942765;28;98112;-66
2023/12/17 00:59:44;;;;;;;;;;;;;;;12.24;50.93;102597.47;4921830;28;118156;-70
2023/12/17 01:02:11;;;;;;;;;;;;;;;12.24;50.62;102608.28;4942327;28;127254;-69
2023/12/17 01:04:37;;;;;;;;;;;;;;;12.24;50.80;102613.69;4932621;28;99829;-70
2023/12/17 01:07:04;;;;;;;;;;;;;;;12.23;50.93;102625.56;4929712;28;99683;-65
2023/12/17 01:09:30;;;;;;;;;;;;;;;12.23;50.63;102628.28;4945984;28;98399;-70
2023/12/17 01:11:57;;;;;;;;;;;;;;;12.22;50.62;102634.69;4908754;28;98949;-69
2023/12/17 01:14:24;;;;;;;;;;;;;;;12.22;50.83;102642.81;4910631;28;98393;-66
2023/12/17 01:16:50;;;;;;;;;;;;;;;12.21;50.77;102641.19;4957675;28;99812;-70
2023/12/17 01:19:16;;;;;;;;;;;;;;;12.20;50.58;102640.34;4962914;27;99280;-66
2023/12/17 01:21:43;;;;;;;;;;;;;;;12.20;50.65;102642.22;4947995;27;98367;-69
2023/12/17 01:24:10;;;;;;;;;;;;;;;12.20;50.77;102642.22;4965287;27;98540;-70
2023/12/17 01:26:37;;;;;;;;;;;;;;;12.18;50.60;102639.78;4947638;28;99330;-70
2023/12/17 01:29:03;;;;;;;;;;;;;;;12.19;50.53;102640.59;4963640;28;99425;-70
2023/12/17 01:31:30;;;;;;;;;;;;;;;12.18;50.89;102633.50;4953736;27;98881;-69
2023/12/17 01:33:56;;;;;;;;;;;;;;;12.18;50.80;102634.34;4939864;28;99737;-70
2023/12/17 01:36:22;;;;;;;;;;;;;;;12.17;50.77;102632.69;4959993;28;98556;-66
2023/12/17 01:38:48;;;;;;;;;;;;;;;12.18;50.89;102628.09;4977033;27;105326;-66
2023/12/17 01:41:14;;;;;;;;;;;;;;;12.17;50.84;102637.28;4963770;27;113231;-66
2023/12/17 01:43:40;;;;;;;;;;;;;;;12.15;50.96;102624.00;4947475;28;98195;-69
2023/12/17 01:46:06;;;;;;;;;;;;;;;12.15;50.60;102624.00;4942750;28;99495;-65
2023/12/17 01:48:32;;;;;;;;;;;;;;;12.14;50.73;102622.31;4949874;27;98055;-68
2023/12/17 01:50:58;;;;;;;;;;;;;;;12.14;50.71;102619.59;4962576;27;117916;-70
2023/12/17 01:53:24;;;;;;;;;;;;;;;12.12;50.57;102620.91;4928769;28;98314;-70
2023/12/17 01:55:50;;;;;;;;;;;;;;;12.11;50.62;102617.38;4961815;27;98507;-65
2023/12/17 01:58:16;;;;;;;;;;;;;;;12.10;50.76;102613.00;4961985;28;111928;-66
2023/12/17 02:00:43;;;;;;;;;;;;;;;12.08;50.80;102601.59;4954305;28;128224;-69
2023/12/17 02:03:09;;;;;;;;;;;;;;;12.08;50.71;102617.81;4937307;28;111814;-66
2023/12/17 02:05:35;;;;;;;;;;;;;;;12.06;50.77;102603.69;4970550;27;99218;-70
2023/12/17 02:08:02;;;;;;;;;;;;;;;12.04;50.91;102603.94;4961489;28;98174;-66
2023/12/17 02:10:28;;;;;;;;;;;;;;;12.03;50.87;102605.00;4944595;27;98575;-66
2023/12/17 02:12:55;;;;;;;;;;;;;;;12.01;50.78;102598.16;4959869;27;113753;-66
2023/12/17 02:15:21;;;;;;;;;;;;;;;12.01;50.64;102604.38;4956186;27;98507;-69
2023/12/17 02:17:47;;;;;;;;;;;;;;;11.99;50.89;102608.38;4960014;27;98453;-67
2023/12/17 02:20:13;;;;;;;;;;;;;;;11.98;50.76;102618.34;4967139;27;99003;-66
2023/12/17 02:22:39;;;;;;;;;;;;;;;11.96;50.70;102628.56;4935617;28;120191;-66
2023/12/17 02:25:06;;;;;;;;;;;;;;;11.96;50.36;102633.16;4945246;27;98403;-69
2023/12/17 02:27:32;;;;;;;;;;;;;;;11.95;50.87;102636.91;4983433;27;98353;-66
2023/12/17 02:29:58;;;;;;;;;;;;;;;11.93;50.80;102633.59;4966241;27;99105;-66
2023/12/17 02:32:24;;;;;;;;;;;;;;;11.93;50.80;102639.00;4964798;27;106065;-70
2023/12/17 02:34:50;;;;;;;;;;;;;;;11.91;51.03;102650.03;4947228;28;99207;-70
2023/12/17 02:37:17;;;;;;;;;;;;;;;11.89;50.88;102649.41;4946002;28;98132;-70
2023/12/17 02:39:43;;;;;;;;;;;;;;;11.89;50.83;102637.78;4952361;28;97940;-70
2023/12/17 02:42:09;;;;;;;;;;;;;;;11.89;50.85;102640.50;4984879;27;98103;-67
2023/12/17 02:44:35;;;;;;;;;;;;;;;11.88;50.84;102636.13;4971132;28;110329;-66
2023/12/17 02:47:01;;;;;;;;;;;;;;;11.86;50.77;102622.00;4950370;28;106138;-69
2023/12/17 02:49:27;;;;;;;;;;;;;;;11.85;50.65;102623.88;4951322;28;98464;-69
2023/12/17 02:51:54;;;;;;;;;;;;;;;11.85;50.84;102625.78;4947058;28;99610;-66
2023/12/17 02:54:21;;;;;;;;;;;;;;;11.83;50.62;102642.22;4956352;28;97994;-69
2023/12/17 02:56:47;;;;;;;;;;;;;;;11.83;50.85;102639.53;4952528;28;99224;-66
2023/12/17 02:59:13;;;;;;;;;;;;;;;11.82;50.88;102631.59;4927230;28;125380;-66
2023/12/17 03:01:43;;;;;;;;;;;;;;;11.82;50.80;102634.28;4950252;28;104922;-65
2023/12/17 03:04:10;;;;;;;;;;;;;;;11.80;50.75;102626.41;4970095;27;98675;-66
2023/12/17 03:06:36;;;;;;;;;;;;;;;11.78;50.80;102615.81;4952507;28;98487;-69
2023/12/17 03:09:03;;;;;;;;;;;;;;;11.78;50.67;102606.88;4947789;27;98226;-65
2023/12/17 03:11:29;;;;;;;;;;;;;;;11.77;50.69;102611.47;4948356;28;100257;-69
2023/12/17 03:13:55;;;;;;;;;;;;;;;11.76;50.62;102615.22;4964263;28;99078;-65
2023/12/17 03:16:22;;;;;;;;;;;;;;;11.76;50.68;102614.41;4960001;27;98154;-65
2023/12/17 03:18:48;;;;;;;;;;;;;;;11.74;50.69;102624.59;4964180;27;98372;-69
2023/12/17 03:21:14;;;;;;;;;;;;;;;11.72;50.57;102616.72;4947096;28;97835;-69
2023/12/17 03:23:39;;;;;;;;;;;;;;;11.71;50.79;102606.97;4943779;28;103912;-65
2023/12/17 03:26:06;;;;;;;;;;;;;;;11.72;50.66;102613.19;4956183;28;98660;-69
2023/12/17 03:28:32;;;;;;;;;;;;;;;11.70;50.84;102608.00;4971134;28;102384;-70
2023/12/17 03:30:58;;;;;;;;;;;;;;;11.69;50.76;102616.34;4968966;27;99190;-66
2023/12/17 03:33:24;;;;;;;;;;;;;;;11.68;50.74;102618.22;4967669;27;106902;-69
2023/12/17 03:35:50;;;;;;;;;;;;;;;11.67;50.85;102616.56;4946801;28;97986;-65
2023/12/17 03:38:17;;;;;;;;;;;;;;;11.67;50.70;102618.41;4945049;28;97961;-70
2023/12/17 03:40:43;;;;;;;;;;;;;;;11.65;50.95;102618.66;4967725;28;98783;-69
2023/12/17 03:43:10;;;;;;;;;;;;;;;11.64;50.88;102611.59;4949541;28;99959;-70
2023/12/17 03:45:36;;;;;;;;;;;;;;;11.64;50.71;102611.59;4973577;27;98589;-66
2023/12/17 03:48:02;;;;;;;;;;;;;;;11.64;50.85;102599.97;4958066;28;99671;-70
2023/12/17 03:50:28;;;;;;;;;;;;;;;11.63;50.78;102596.47;4943695;28;122768;-69
2023/12/17 03:52:54;;;;;;;;;;;;;;;11.64;50.77;102595.41;4970802;27;98115;-66
2023/12/17 03:55:20;;;;;;;;;;;;;;;11.63;50.73;102596.47;4965295;27;98781;-69
2023/12/17 03:57:47;;;;;;;;;;;;;;;11.64;50.86;102597.28;4979296;27;98615;-66
2023/12/17 04:00:13;;;;;;;;;;;;;;;11.63;50.70;102590.19;4979171;27;102230;-69
2023/12/17 04:02:39;;;;;;;;;;;;;;;11.63;50.74;102592.91;4949875;27;114054;-69
2023/12/17 04:05:06;;;;;;;;;;;;;;;11.62;50.51;102599.34;4951446;28;97998;-66
2023/12/17 04:07:32;;;;;;;;;;;;;;;11.61;50.73;102601.25;4962757;27;99565;-68
2023/12/17 04:10:01;;;;;;;;;;;;;;;11.63;50.73;102601.00;4954688;27;116210;-69
2023/12/17 04:12:27;;;;;;;;;;;;;;;11.62;50.68;102602.06;4940736;27;107074;-65
2023/12/17 04:14:53;;;;;;;;;;;;;;;11.62;50.80;102608.28;4944241;28;98373;-70
2023/12/17 04:17:19;;;;;;;;;;;;;;;11.63;50.82;102603.72;4947569;28;98424;-70
2023/12/17 04:19:45;;;;;;;;;;;;;;;11.63;50.72;102606.41;4936265;28;106109;-70
2023/12/17 04:22:12;;;;;;;;;;;;;;;11.62;50.95;102594.78;4974618;27;99832;-69
2023/12/17 04:24:38;;;;;;;;;;;;;;;11.63;50.82;102595.59;4953866;28;98134;-69
2023/12/17 04:27:04;;;;;;;;;;;;;;;11.63;50.60;102591.06;4965089;28;98306;-69
2023/12/17 04:29:30;;;;;;;;;;;;;;;11.63;50.76;102580.25;4972064;27;98109;-69
2023/12/17 04:31:56;;;;;;;;;;;;;;;11.62;50.47;102570.47;4903930;28;117576;-65
2023/12/17 04:34:22;;;;;;;;;;;;;;;11.64;50.78;102573.78;4945142;28;99600;-69
2023/12/17 04:36:48;;;;;;;;;;;;;;;11.64;50.69;102573.78;4947855;28;98525;-65
2023/12/17 04:39:14;;;;;;;;;;;;;;;11.64;50.84;102587.28;4960701;28;98310;-69
2023/12/17 04:41:40;;;;;;;;;;;;;;;11.65;50.78;102582.72;4947685;28;116331;-65
2023/12/17 04:44:07;;;;;;;;;;;;;;;11.64;50.63;102584.59;4939926;28;98757;-65
2023/12/17 04:46:33;;;;;;;;;;;;;;;11.64;50.92;102584.59;4966776;27;99429;-65
2023/12/17 04:49:00;;;;;;;;;;;;;;;11.65;50.80;102591.63;4942746;28;98108;-65
2023/12/17 04:51:26;;;;;;;;;;;;;;;11.65;50.83;102597.03;4929080;28;99353;-69
2023/12/17 04:53:53;;;;;;;;;;;;;;;11.66;50.69;102592.47;4942805;28;99718;-69
2023/12/17 04:56:19;;;;;;;;;;;;;;;11.66;50.79;102592.47;4964954;28;100474;-65
2023/12/17 04:58:45;;;;;;;;;;;;;;;11.67;50.73;102596.81;4963272;27;100081;-65
2023/12/17 05:01:11;;;;;;;;;;;;;;;11.67;50.84;102600.38;4956166;28;98201;-69
2023/12/17 05:03:38;;;;;;;;;;;;;;;11.67;50.69;102592.25;4952109;28;117479;-66
2023/12/17 05:06:04;;;;;;;;;;;;;;;11.67;50.74;102597.66;4962639;28;98879;-65
2023/12/17 05:08:30;;;;;;;;;;;;;;;11.67;50.77;102600.38;4965369;28;98019;-70
2023/12/17 05:10:56;;;;;;;;;;;;;;;11.69;50.69;102597.44;4937315;28;98342;-65
2023/12/17 05:13:23;;;;;;;;;;;;;;;11.69;50.73;102608.22;4962017;28;113118;-65
2023/12/17 05:15:49;;;;;;;;;;;;;;;11.68;50.82;102604.72;4966169;27;98165;-66
2023/12/17 05:18:15;;;;;;;;;;;;;;;11.69;50.82;102609.06;4973699;27;111424;-69
2023/12/17 05:20:41;;;;;;;;;;;;;;;11.71;50.74;102614.22;4961230;27;109663;-65
2023/12/17 05:23:08;;;;;;;;;;;;;;;11.71;50.81;102608.81;4946341;27;99290;-66
2023/12/17 05:25:34;;;;;;;;;;;;;;;11.71;50.67;102617.78;4968442;27;98447;-66
2023/12/17 05:28:00;;;;;;;;;;;;;;;11.71;50.54;102620.47;4965847;27;98207;-66
2023/12/17 05:30:26;;;;;;;;;;;;;;;11.71;50.78;102622.31;4968918;27;123803;-70
2023/12/17 05:32:52;;;;;;;;;;;;;;;11.71;50.71;102622.31;4966275;27;98293;-69
2023/12/17 05:35:18;;;;;;;;;;;;;;;11.71;50.88;102625.88;4970048;27;128513;-66
2023/12/17 05:37:45;;;;;;;;;;;;;;;11.71;50.66;102633.13;4962361;27;100203;-70
2023/12/17 05:40:11;;;;;;;;;;;;;;;11.72;50.65;102634.81;4969833;28;98189;-66
2023/12/17 05:42:37;;;;;;;;;;;;;;;11.72;50.65;102634.81;4981528;27;108539;-66
2023/12/17 05:45:03;;;;;;;;;;;;;;;11.71;50.83;102634.00;4960833;27;98324;-69
2023/12/17 05:47:30;;;;;;;;;;;;;;;11.72;50.55;102642.91;4961392;27;112087;-66
2023/12/17 05:49:56;;;;;;;;;;;;;;;11.72;50.71;102645.63;4949790;27;98125;-66
2023/12/17 05:52:22;;;;;;;;;;;;;;;11.72;50.56;102648.31;4970158;27;98009;-65
2023/12/17 05:54:49;;;;;;;;;;;;;;;11.71;50.78;102636.69;4950341;27;98001;-66
2023/12/17 05:57:15;;;;;;;;;;;;;;;11.71;50.73;102636.69;4964752;27;98080;-70
2023/12/17 05:59:41;;;;;;;;;;;;;;;11.71;50.67;102636.69;4946123;27;98194;-66
2023/12/17 06:02:07;;;;;;;;;;;;;;;11.72;50.82;102642.91;4942606;28;118656;-70
2023/12/17 06:04:33;;;;;;;;;;;;;;;11.71;50.60;102641.25;4960177;28;127257;-69
2023/12/17 06:06:59;;;;;;;;;;;;;;;11.71;50.76;102649.34;4966469;27;97997;-70
2023/12/17 06:09:25;;;;;;;;;;;;;;;11.71;50.65;102646.66;4963116;28;98510;-65
2023/12/17 06:11:51;;;;;;;;;;;;;;;11.71;50.70;102652.03;4949602;27;98005;-65
2023/12/17 06:14:18;;;;;;;;;;;;;;;11.71;50.67;102646.66;4977883;27;99459;-70
2023/12/17 06:16:47;;;;;;;;;;;;;;;11.71;50.87;102650.19;4976752;27;98406;-66
2023/12/17 06:19:13;;;;;;;;;;;;;;;11.71;50.67;102654.75;4965266;27;101422;-66
2023/12/17 06:21:39;;;;;;;;;;;;;;;11.71;50.71;102654.75;4975323;27;105511;-66
2023/12/17 06:24:05;;;;;;;;;;;;;;;11.71;50.70;102655.59;4943180;27;102313;-70
2023/12/17 06:26:31;;;;;;;;;;;;;;;11.71;50.89;102646.66;4963248;28;99316;-66
2023/12/17 06:28:58;;;;;;;;;;;;;;;11.72;50.81;102648.31;4962588;27;98410;-69
2023/12/17 06:31:24;;;;;;;;;;;;;;;11.72;50.68;102656.44;4950507;27;98293;-69
2023/12/17 06:33:54;;;;;;;;;;;;;;;11.72;50.75;102654.53;4975178;27;100982;-65
2023/12/17 06:36:20;;;;;;;;;;;;;;;11.73;50.96;102653.50;4963369;27;99506;-65
2023/12/17 06:38:46;;;;;;;;;;;;;;;11.73;50.67;102639.16;4947166;28;97961;-69
2023/12/17 06:41:12;;;;;;;;;;;;;;;11.72;50.66;102643.75;4967258;27;98277;-66
2023/12/17 06:43:41;;;;;;;;;;;;;;;11.73;50.72;102642.69;4981305;27;98383;-69
2023/12/17 06:46:07;;;;;;;;;;;;;;;11.73;50.84;102648.09;4949625;27;99190;-69
2023/12/17 06:48:35;;;;;;;;;;;;;;;11.73;50.58;102658.91;4946465;28;98763;-65
2023/12/17 06:51:01;;;;;;;;;;;;;;;11.74;50.64;102651.59;4963464;27;98859;-65
2023/12/17 06:53:27;;;;;;;;;;;;;;;11.73;50.56;102661.59;4960905;28;99383;-69
2023/12/17 06:55:54;;;;;;;;;;;;;;;11.74;50.75;102662.41;4976360;27;102613;-65
2023/12/17 06:58:20;;;;;;;;;;;;;;;11.74;50.58;102671.34;4957954;27;128791;-69
2023/12/17 07:00:46;;;;;;;;;;;;;;;11.75;50.63;102664.06;4963790;28;98262;-69
2023/12/17 07:03:18;;;;;;;;;;;;;;;11.75;50.71;102672.16;4959736;27;111033;-69
2023/12/17 07:05:44;;;;;;;;;;;;;;;11.76;50.63;102679.25;4948640;28;100231;-71
2023/12/17 07:08:10;;;;;;;;;;;;;;;11.77;50.53;102680.91;4966500;27;99235;-70
2023/12/17 07:10:36;;;;;;;;;;;;;;;11.76;50.69;102677.38;4980780;27;98345;-65
2023/12/17 07:13:03;;;;;;;;;;;;;;;11.76;50.76;102676.53;4961967;27;98127;-65
2023/12/17 07:15:29;;;;;;;;;;;;;;;11.78;50.66;102680.66;4964044;27;98274;-65
2023/12/17 07:17:55;;;;;;;;;;;;;;;11.77;50.63;102675.50;4972680;27;125646;-69
2023/12/17 07:20:21;;;;;;;;;;;;;;;11.79;50.69;102674.22;4964156;27;98182;-68
2023/12/17 07:22:50;;;;;;;;;;;;;;;11.78;50.93;102677.97;4928138;28;98462;-65
2023/12/17 07:25:18;;;;;;;;;;;;;;;11.80;50.80;102689.38;4962517;27;98680;-65
2023/12/17 07:27:45;;;;;;;;;;;;;;;11.80;50.66;102685.88;4975629;27;102075;-69
2023/12/17 07:30:11;;;;;;;;;;;;;;;11.82;50.74;102688.34;4949333;27;98332;-69
2023/12/17 07:32:37;;;;;;;;;;;;;;;11.81;50.71;102687.50;4950187;27;98987;-69
2023/12/17 07:35:06;;;;;;;;;;;;;;;11.82;50.53;102685.63;4959462;27;99589;-69
2023/12/17 07:37:32;;;;;;;;;;;;;;;11.82;50.67;102691.84;4978217;27;98195;-68
2023/12/17 07:39:58;;;;;;;;;;;;;;;11.84;50.76;102684.41;4947034;28;98306;-65
2023/12/17 07:42:24;;;;;;;;;;;;;;;11.84;50.65;102684.41;4961522;27;126826;-69
2023/12/17 07:44:50;;;;;;;;;;;;;;;11.85;50.81;102685.22;4963964;28;130587;-69
2023/12/17 07:47:16;;;;;;;;;;;;;;;11.87;50.78;102689.38;4962208;27;99439;-65
2023/12/17 07:49:43;;;;;;;;;;;;;;;11.88;50.66;102687.50;4960577;28;98198;-65
2023/12/17 07:52:09;;;;;;;;;;;;;;;11.89;50.54;102689.97;4965095;27;98314;-65
2023/12/17 07:54:36;;;;;;;;;;;;;;;11.91;50.40;102687.06;4945010;28;98386;-69
2023/12/17 07:57:03;;;;;;;;;;;;;;;11.93;50.54;102684.94;4962574;28;99418;-65
2023/12/17 07:59:29;;;;;;;;;;;;;;;11.94;50.71;102689.28;4945085;27;98386;-66
2023/12/17 08:01:55;;;;;;;;;;;;;;;11.95;50.45;102689.06;4974695;27;100849;-66
2023/12/17 08:04:21;;;;;;;;;;;;;;;11.96;50.50;102685.31;4941989;27;99128;-65
2023/12/17 08:06:47;;;;;;;;;;;;;;;11.99;50.67;102689.47;4964366;27;99487;-69
2023/12/17 08:09:15;;;;;;;;;;;;;;;12.00;50.47;102688.41;4974762;27;99409;-65
2023/12/17 08:11:43;;;;;;;;;;;;;;;12.04;50.41;102676.91;4946433;28;101115;-69
2023/12/17 08:14:09;;;;;;;;;;;;;;;12.09;50.30;102678.13;4957713;27;98250;-69
2023/12/17 08:16:35;;;;;;;;;;;;;;;12.12;50.41;102677.69;4955362;28;121817;-65
2023/12/17 08:19:01;;;;;;;;;;;;;;;12.15;50.44;102675.34;4929624;28;98887;-69
2023/12/17 08:21:27;;;;;;;;;;;;;;;12.19;50.28;102675.75;4924442;28;98310;-66
2023/12/17 08:23:53;;;;;;;;;;;;;;;12.22;50.47;102667.16;4925639;28;100561;-66
2023/12/17 08:26:19;;;;;;;;;;;;;;;12.24;50.44;102671.28;4935486;28;127825;-70
2023/12/17 08:28:46;;;;;;;;;;;;;;;12.27;50.38;102668.16;4953160;28;117853;-70
2023/12/17 08:31:12;;;;;;;;;;;;;;;12.30;50.45;102664.19;4904683;28;98728;-65
2023/12/17 08:33:38;;;;;;;;;;;;;;;12.33;50.35;102660.19;4939375;28;104097;-65
2023/12/17 08:36:05;;;;;;;;;;;;;;;12.36;50.29;102660.56;4923512;28;98558;-70
2023/12/17 08:38:31;;;;;;;;;;;;;;;12.36;50.55;102649.72;4925017;28;98059;-66
2023/12/17 08:40:57;;;;;;;;;;;;;;;12.38;50.26;102650.34;4916566;28;131573;-66
2023/12/17 08:43:23;;;;;;;;;;;;;;;12.39;50.43;102646.59;4940185;28;98063;-69
2023/12/17 08:45:49;;;;;;;;;;;;;;;12.39;50.33;102651.16;4924669;28;108472;-65
2023/12/17 08:48:15;;;;;;;;;;;;;;;12.39;50.71;102651.16;4925804;28;98450;-69
2023/12/17 08:50:41;;;;;;;;;;;;;;;12.39;50.44;102652.00;4954584;28;99864;-66
2023/12/17 08:53:07;;;;;;;;;;;;;;;12.40;50.40;102648.22;4934749;28;100178;-70
2023/12/17 08:55:33;;;;;;;;;;;;;;;12.43;50.25;102646.97;4927700;28;102857;-70
2023/12/17 08:57:59;;;;;;;;;;;;;;;12.44;50.50;102644.00;4924338;28;98105;-69
2023/12/17 09:00:25;;;;;;;;;;;;;;;12.46;50.65;102641.91;4953326;28;126924;-66
2023/12/17 09:02:52;;;;;;;;;;;;;;;12.49;50.22;102654.97;4943828;28;98461;-70
2023/12/17 09:05:18;;;;;;;;;;;;;;;12.50;50.40;102661.22;4936158;28;98440;-69
2023/12/17 09:07:45;;;;;;;;;;;;;;;12.52;50.43;102657.22;4945242;28;98034;-66
2023/12/17 09:10:11;;;;;;;;;;;;;;;12.53;50.33;102650.75;4928770;28;98695;-69
2023/12/17 09:12:37;;;;;;;;;;;;;;;12.55;50.26;102647.00;4923121;28;98368;-66
2023/12/17 09:15:03;;;;;;;;;;;;;;;12.56;50.30;102651.38;4941907;28;99652;-66
2023/12/17 09:17:29;;;;;;;;;;;;;;;12.58;50.36;102649.28;4939265;28;98205;-66
2023/12/17 09:19:55;;;;;;;;;;;;;;;12.59;50.51;102646.31;4938685;28;128352;-66
2023/12/17 09:22:21;;;;;;;;;;;;;;;12.61;50.28;102648.78;4934930;28;114642;-69
2023/12/17 09:24:47;;;;;;;;;;;;;;;12.61;50.39;102651.50;4946532;27;129669;-70
2023/12/17 09:27:13;;;;;;;;;;;;;;;12.62;50.50;102655.88;4922589;28;98691;-70
2023/12/17 09:29:39;;;;;;;;;;;;;;;12.62;50.61;102645.06;4928970;28;100176;-70
2023/12/17 09:32:06;;;;;;;;;;;;;;;12.63;50.33;102636.69;4948288;28;127962;-70
2023/12/17 09:34:32;;;;;;;;;;;;;;;12.64;50.61;102626.69;4945442;28;99102;-66
2023/12/17 09:36:59;;;;;;;;;;;;;;;12.67;50.43;102624.38;4964756;27;103672;-66
2023/12/17 09:39:25;;;;;;;;;;;;;;;12.69;50.25;102624.97;4954997;28;98390;-70
2023/12/17 09:41:51;;;;;;;;;;;;;;;12.71;50.31;102617.44;4934995;28;99533;-66
2023/12/17 09:44:17;;;;;;;;;;;;;;;12.75;50.53;102623.22;4959507;28;99262;-66
2023/12/17 09:46:44;;;;;;;;;;;;;;;12.78;50.52;102620.06;4936003;28;102203;-70
2023/12/17 09:49:10;;;;;;;;;;;;;;;12.79;50.54;102624.41;4957588;28;98373;-66
2023/12/17 09:51:37;;;;;;;;;;;;;;;12.82;50.38;102617.72;4934795;28;98591;-66
2023/12/17 09:54:03;;;;;;;;;;;;;;;12.84;50.47;102627.25;4933553;28;98716;-66
2023/12/17 09:56:29;;;;;;;;;;;;;;;12.86;50.48;102616.19;4922992;28;98606;-70
2023/12/17 09:58:55;;;;;;;;;;;;;;;12.87;50.30;102615.97;4952326;28;98400;-66
2023/12/17 10:01:21;;;;;;;;;;;;;;;12.91;50.46;102610.91;4937821;28;98946;-66
2023/12/17 10:03:47;;;;;;;;;;;;;;;12.91;50.39;102603.63;4951137;28;109539;-70
2023/12/17 10:06:13;;;;;;;;;;;;;;;12.92;50.33;102604.44;4948146;28;104188;-66
2023/12/17 10:08:39;;;;;;;;;;;;;;;12.92;50.18;102613.38;4953176;28;109210;-66
2023/12/17 10:11:07;;;;;;;;;;;;;;;12.93;50.21;102614.19;4939293;28;128700;-70
2023/12/17 10:13:33;;;;;;;;;;;;;;;12.92;50.45;102616.09;4921711;28;98446;-69
2023/12/17 10:15:59;;;;;;;;;;;;;;;12.92;50.57;102618.78;4937880;28;98465;-70
2023/12/17 10:18:25;;;;;;;;;;;;;;;12.94;50.16;102624.00;4963082;27;127481;-69
2023/12/17 10:20:51;;;;;;;;;;;;;;;12.94;50.18;102622.09;4943836;28;98164;-70
2023/12/17 10:23:17;;;;;;;;;;;;;;;12.94;50.29;102624.81;4960229;27;99532;-70
2023/12/17 10:25:43;;;;;;;;;;;;;;;12.96;50.46;102621.88;4964105;27;102281;-66
2023/12/17 10:28:10;;;;;;;;;;;;;;;12.97;50.21;102621.66;4959894;27;97983;-69
2023/12/17 10:30:36;;;;;;;;;;;;;;;12.99;50.19;102616.00;4953327;27;99315;-66
2023/12/17 10:33:03;;;;;;;;;;;;;;;13.03;50.15;102611.75;4956726;27;99454;-66
2023/12/17 10:35:32;;;;;;;;;;;;;;;13.07;50.38;102612.13;4941202;27;98237;-70
2023/12/17 10:38:00;;;;;;;;;;;;;;;13.10;50.22;102615.19;4957569;28;99842;-70
2023/12/17 10:40:26;;;;;;;;;;;;;;;13.12;50.48;102602.25;4946676;27;98639;-66
2023/12/17 10:42:53;;;;;;;;;;;;;;;13.14;50.23;102605.56;4962332;28;99664;-71
2023/12/17 10:45:20;;;;;;;;;;;;;;;13.18;50.36;102603.22;4945732;27;98317;-71
2023/12/17 10:47:53;;;;;;;;;;;;;;;13.21;50.33;102595.44;4977085;27;99153;-71
2023/12/17 10:50:19;;;;;;;;;;;;;;;13.25;50.06;102595.84;4965468;27;99747;-66
2023/12/17 10:52:49;;;;;;;;;;;;;;;13.26;50.25;102606.44;4975977;27;98105;-66
2023/12/17 10:55:15;;;;;;;;;;;;;;;13.29;50.36;102593.50;4938637;27;98439;-70
2023/12/17 10:57:45;;;;;;;;;;;;;;;13.32;49.94;102596.53;4923707;27;99878;-66
2023/12/17 11:00:11;;;;;;;;;;;;;;;13.34;50.44;102597.13;4946038;27;98648;-67
2023/12/17 11:02:37;;;;;;;;;;;;;;;13.36;50.17;102588.75;4963315;27;119839;-70
2023/12/17 11:05:03;;;;;;;;;;;;;;;13.39;50.37;102581.00;4963148;28;98765;-70
2023/12/17 11:07:30;;;;;;;;;;;;;;;13.50;50.30;102585.59;4977840;27;98500;-70
2023/12/17 11:09:57;;;;;;;;;;;;;;;13.77;49.76;102576.16;4967408;27;100066;-70
2023/12/17 11:12:23;;;;;;;;;;;;;;;13.91;49.88;102570.25;4961246;27;98169;-67
2023/12/17 11:14:49;;;;;;;;;;;;;;;13.99;49.94;102564.44;4933670;28;120536;-70
2023/12/17 11:17:17;;;;;;;;;;;;;;;14.03;49.63;102567.50;4941131;28;127755;-66
2023/12/17 11:19:56;;;;;;;;;;;;;;;14.06;50.08;102556.16;4925095;28;98632;-70
2023/12/17 11:22:23;;;;;;;;;;;;;;;14.07;49.72;102557.84;4923721;28;97960;-71
2023/12/17 11:24:49;;;;;;;;;;;;;;;14.09;49.67;102552.97;4945038;28;98182;-67
2023/12/17 11:27:19;;;;;;;;;;;;;;;14.12;49.95;102541.66;4927887;28;99471;-66
2023/12/17 11:29:45;;;;;;;;;;;;;;;14.13;50.08;102532.44;4942542;28;98267;-66
2023/12/17 11:32:11;;;;;;;;;;;;;;;14.16;49.94;102526.53;4955027;28;98195;-66
2023/12/17 11:34:40;;;;;;;;;;;;;;;14.19;49.79;102528.78;4936971;28;98340;-70
2023/12/17 11:37:06;;;;;;;;;;;;;;;14.19;49.88;102530.66;4923942;28;98661;-66
2023/12/17 11:39:34;;;;;;;;;;;;;;;14.19;49.89;102530.66;4947053;28;98371;-70
2023/12/17 11:42:00;;;;;;;;;;;;;;;14.20;49.83;102526.88;4923847;28;97943;-70
2023/12/17 11:44:26;;;;;;;;;;;;;;;14.20;50.10;102522.28;4936150;28;106772;-70
2023/12/17 11:46:52;;;;;;;;;;;;;;;14.20;49.87;102526.88;4922800;28;129067;-66
2023/12/17 11:49:24;;;;;;;;;;;;;;;14.20;50.25;102524.19;4925490;28;98160;-66
2023/12/17 11:51:54;;;;;;;;;;;;;;;14.17;50.01;102530.06;4917209;28;99307;-66
2023/12/17 11:54:20;;;;;;;;;;;;;;;14.16;50.28;102509.44;4926123;28;99375;-66
2023/12/17 11:56:48;;;;;;;;;;;;;;;14.14;49.93;102512.38;4929013;28;98077;-66
2023/12/17 11:59:15;;;;;;;;;;;;;;;14.12;50.01;102511.81;4926113;28;99783;-66
2023/12/17 12:01:42;;;;;;;;;;;;;;;14.10;50.20;102508.50;4942128;28;98307;-66
2023/12/17 12:04:08;;;;;;;;;;;;;;;14.07;49.98;102495.47;4928480;28;97928;-68
2023/12/17 12:06:34;;;;;;;;;;;;;;;14.05;50.03;102486.72;4933555;28;98283;-70
2023/12/17 12:09:00;;;;;;;;;;;;;;;14.04;50.03;102487.00;4936989;28;117190;-66
2023/12/17 12:11:33;;;;;;;;;;;;;;;14.00;50.28;102476.63;4954153;28;108029;-66
2023/12/17 12:13:59;;;;;;;;;;;;;;;13.99;50.07;102466.03;4947262;28;98893;-67
2023/12/17 12:16:25;;;;;;;;;;;;;;;13.98;50.44;102461.66;4942723;28;100373;-71
2023/12/17 12:19:02;;;;;;;;;;;;;;;13.96;50.17;102458.38;4930180;28;97938;-70
2023/12/17 12:21:28;;;;;;;;;;;;;;;13.95;50.15;102451.28;4958193;28;98250;-71
2023/12/17 12:23:55;;;;;;;;;;;;;;;13.94;50.24;102463.19;4937109;28;118134;-70
2023/12/17 12:26:22;;;;;;;;;;;;;;;13.92;50.46;102459.91;4935160;28;99100;-70
2023/12/17 12:28:58;;;;;;;;;;;;;;;13.90;50.30;102446.59;4955874;28;98281;-66